Time;durP1;ratioP1;P1;durP2;ratioP2;P2;SDS_P1;SDS_P2;PMS_P1;PMS_P2;Temp;Humidity;BMP_temperature;BMP_pressure;BME280_temperature;BME280_humidity;BME280_pressure;Samples;Min_cycle;Max_cycle;Signal;HPM_P1;HPM_P2
2023/05/31 00:04:08;;;;;;;3.38;3.00;;;;;;;11.98;90.43;102731.06;4990990;28;20128;-71
2023/05/31 00:06:33;;;;;;;4.22;3.20;;;;;;;11.96;90.49;102724.97;4987246;28;20253;-71
2023/05/31 00:08:59;;;;;;;4.00;3.47;;;;;;;11.95;90.13;102725.88;4990164;28;20062;-71
2023/05/31 00:11:26;;;;;;;6.00;3.60;;;;;;;11.93;90.68;102737.28;4994833;28;20313;-71
2023/05/31 00:13:51;;;;;;;6.03;2.67;;;;;;;11.93;90.67;102732.88;4981446;28;20054;-71
2023/05/31 00:16:17;;;;;;;5.53;3.17;;;;;;;11.88;90.93;102727.69;4979419;28;20109;-71
2023/05/31 00:18:42;;;;;;;3.63;3.22;;;;;;;11.80;91.66;102728.69;4991051;28;20088;-71
2023/05/31 00:21:08;;;;;;;7.32;4.75;;;;;;;11.73;91.62;102733.16;4978734;28;20066;-71
2023/05/31 00:23:33;;;;;;;3.63;3.17;;;;;;;11.73;91.83;102735.78;4989028;28;20050;-71
2023/05/31 00:25:58;;;;;;;3.58;3.25;;;;;;;11.64;92.48;102731.56;4997834;28;20285;-71
2023/05/31 00:28:24;;;;;;;5.55;3.53;;;;;;;11.65;92.38;102728.03;4990002;28;20046;-71
2023/05/31 00:30:49;;;;;;;6.03;3.75;;;;;;;11.60;92.58;102736.88;4993129;28;20222;-71
2023/05/31 00:53:04;;;;;;;3.97;3.58;;;;;;;11.58;91.52;102723.75;4997377;28;20033;-71
2023/05/31 00:55:31;;;;;;;4.53;3.28;;;;;;;11.58;91.46;102720.28;5001716;28;20357;-71
2023/05/31 00:57:57;;;;;;;4.38;3.65;;;;;;;11.58;91.75;102720.28;5001349;28;20030;-71
2023/05/31 01:00:23;;;;;;;4.10;3.70;;;;;;;11.56;91.31;102725.56;4989120;28;20104;-71
2023/05/31 01:02:50;;;;;;;4.47;3.63;;;;;;;11.64;91.42;102715.81;4982469;28;20042;-71
2023/05/31 01:05:16;;;;;;;5.78;3.65;;;;;;;11.60;91.06;102721.13;4994383;28;20057;-71
2023/05/31 01:07:41;;;;;;;5.65;3.70;;;;;;;11.52;91.52;102731.75;5002139;28;20093;-71
2023/05/31 01:10:08;;;;;;;3.75;3.45;;;;;;;11.53;91.55;102728.22;5001458;28;20073;-71
2023/05/31 01:12:57;;;;;;;4.78;3.70;;;;;;;11.55;91.42;102726.47;5002201;28;20373;-71
2023/05/31 01:15:36;;;;;;;6.18;3.85;;;;;;;11.50;91.93;102731.75;4999362;28;20054;-71
2023/05/31 01:18:18;;;;;;;5.82;4.22;;;;;;;11.45;92.04;102723.06;4990534;28;20097;-71
2023/05/31 01:20:46;;;;;;;5.38;3.78;;;;;;;11.45;92.21;102725.69;4997319;28;20058;-71
2023/05/31 01:23:49;;;;;;;6.32;3.97;;;;;;;11.46;92.17;102721.31;4995751;28;20046;-71
2023/05/31 01:26:33;;;;;;;10.55;4.80;;;;;;;11.38;91.92;102720.56;4983299;28;20038;-71
2023/05/31 01:29:09;;;;;;;7.53;4.15;;;;;;;11.37;92.15;102721.44;4991252;28;20312;-71
2023/05/31 01:31:36;;;;;;;7.82;4.20;;;;;;;11.43;92.09;102721.38;4983486;28;20053;-71
2023/05/31 01:34:04;;;;;;;5.15;3.63;;;;;;;11.39;92.26;102717.03;4991137;28;20035;-71
2023/05/31 01:36:29;;;;;;;6.25;3.80;;;;;;;11.39;92.20;102719.66;4987638;28;20042;-71
2023/05/31 01:38:55;;;;;;;6.50;3.88;;;;;;;11.43;91.73;102730.09;4994692;28;20050;-71
2023/05/31 01:41:23;;;;;;;4.65;3.60;;;;;;;11.42;91.94;102722.25;4994613;28;20049;-71
2023/05/31 01:43:49;;;;;;;4.07;3.65;;;;;;;11.38;91.99;102721.44;4993929;28;20277;-71
2023/05/31 01:46:18;;;;;;;5.88;4.13;;;;;;;11.40;91.79;102722.28;4999886;28;20281;-71
2023/05/31 01:48:45;;;;;;;6.35;4.07;;;;;;;11.44;91.24;102723.97;4993016;28;20088;-71
2023/05/31 01:51:13;;;;;;;7.07;4.32;;;;;;;11.27;92.03;102720.72;4995875;28;20045;-71
2023/05/31 01:53:38;;;;;;;4.22;3.78;;;;;;;11.27;92.32;102728.59;4992074;28;20038;-71
2023/05/31 01:56:05;;;;;;;5.05;3.95;;;;;;;11.30;91.83;102729.41;4998157;28;20233;-71
2023/05/31 01:58:31;;;;;;;6.05;3.80;;;;;;;11.29;92.12;102732.06;4999691;28;20057;-71
2023/05/31 02:00:58;;;;;;;4.72;3.92;;;;;;;11.29;92.00;102718.94;4999470;28;20241;-71
2023/05/31 02:03:24;;;;;;;6.00;4.47;;;;;;;11.30;92.07;102726.78;4991580;28;20344;-71
2023/05/31 02:05:59;;;;;;;7.30;3.95;;;;;;;11.28;91.67;102717.22;5001189;28;20034;-71
2023/05/31 02:08:25;;;;;;;5.40;3.53;;;;;;;11.29;91.77;102717.16;4986109;28;20051;-71
2023/05/31 02:10:52;;;;;;;6.82;4.47;;;;;;;11.22;91.96;102723.38;4981364;28;20073;-71
2023/05/31 02:13:23;;;;;;;6.57;4.53;;;;;;;11.21;92.08;102724.28;4993349;28;20042;-71
2023/05/31 02:15:48;;;;;;;7.20;4.55;;;;;;;11.21;92.14;102713.81;5001125;28;20266;-71
2023/05/31 02:18:16;;;;;;;5.55;4.40;;;;;;;11.16;92.29;102715.63;4997699;28;20057;-71
2023/05/31 02:20:42;;;;;;;5.32;4.18;;;;;;;11.18;92.23;102720.84;5001186;28;20037;-71
2023/05/31 02:23:08;;;;;;;5.82;4.43;;;;;;;11.14;92.49;102712.16;4992956;28;20049;-71
2023/05/31 02:25:33;;;;;;;5.72;4.38;;;;;;;11.16;92.36;102712.13;5000789;28;20050;-71
2023/05/31 02:27:59;;;;;;;7.85;4.03;;;;;;;11.20;92.35;102716.44;4990522;28;20030;-72
2023/05/31 02:30:27;;;;;;;5.88;4.38;;;;;;;11.16;92.14;102720.84;4990445;28;20043;-71
2023/05/31 02:32:53;;;;;;;6.35;4.05;;;;;;;11.14;92.13;102720.00;4983641;28;20042;-71
2023/05/31 02:35:18;;;;;;;8.30;4.50;;;;;;;11.09;92.53;102719.19;4987364;28;20085;-71
2023/05/31 02:37:45;;;;;;;5.18;4.57;;;;;;;11.16;92.37;102725.25;4991670;28;20046;-71
2023/05/31 02:40:10;;;;;;;5.03;4.18;;;;;;;10.99;92.95;102712.31;4995360;28;20023;-71
2023/05/31 02:42:38;;;;;;;6.93;4.22;;;;;;;10.97;93.47;102714.09;4990651;28;20072;-71
2023/05/31 02:45:05;;;;;;;5.32;4.82;;;;;;;10.93;93.18;102719.41;4999824;28;20125;-71
2023/05/31 02:47:31;;;;;;;4.80;4.10;;;;;;;11.01;93.33;102716.69;4994586;28;20053;-71
2023/05/31 02:49:56;;;;;;;7.78;4.63;;;;;;;10.98;93.12;102708.84;4995998;28;20042;-71
2023/05/31 02:52:23;;;;;;;4.45;4.03;;;;;;;11.01;92.79;102710.59;4986459;28;20384;-71
2023/05/31 02:54:49;;;;;;;4.95;4.25;;;;;;;11.05;92.24;102704.41;4999258;28;20042;-71
2023/05/31 02:57:15;;;;;;;6.68;3.92;;;;;;;11.03;92.46;102703.56;4994735;28;20100;-71
2023/05/31 02:59:43;;;;;;;8.20;4.15;;;;;;;11.01;92.40;102700.09;4998179;28;20109;-71
2023/05/31 03:02:09;;;;;;;7.45;4.60;;;;;;;11.04;92.19;102703.53;4981114;28;20050;-71
2023/05/31 03:04:35;;;;;;;7.13;4.20;;;;;;;10.97;92.78;102703.63;4990372;28;20046;-71
2023/05/31 03:07:00;;;;;;;8.15;4.72;;;;;;;10.93;93.01;102706.31;4981358;28;20042;-71
2023/05/31 03:09:25;;;;;;;6.55;4.10;;;;;;;10.98;92.60;102706.22;4998847;28;20054;-71
2023/05/31 03:11:51;;;;;;;7.53;4.85;;;;;;;10.99;92.56;102705.34;4981913;28;20070;-71
2023/05/31 03:14:16;;;;;;;6.07;4.22;;;;;;;11.00;92.31;102709.69;4998501;28;20058;-71
2023/05/31 03:16:43;;;;;;;6.75;4.30;;;;;;;10.92;92.92;102699.31;4999508;28;20353;-71
2023/05/31 03:19:08;;;;;;;7.03;4.32;;;;;;;10.94;92.98;102699.28;4991124;28;20054;-71
2023/05/31 03:21:34;;;;;;;5.57;4.78;;;;;;;10.88;93.27;102700.25;4984846;28;20230;-71
2023/05/31 03:23:59;;;;;;;6.90;4.28;;;;;;;10.88;93.45;102692.38;4991466;28;20077;-71
2023/05/31 03:26:25;;;;;;;4.78;4.28;;;;;;;10.87;93.22;102693.25;4989844;28;20062;-71
2023/05/31 03:28:51;;;;;;;6.03;4.15;;;;;;;10.85;93.55;102702.03;4992638;28;20092;-71
2023/05/31 03:31:18;;;;;;;6.07;4.60;;;;;;;10.78;93.99;102693.38;4990685;28;20042;-71
2023/05/31 03:33:44;;;;;;;5.63;4.25;;;;;;;10.82;93.84;102692.44;4987401;28;20045;-71
2023/05/31 03:36:10;;;;;;;5.05;4.22;;;;;;;10.84;93.89;102695.94;4992580;28;20344;-71
2023/05/31 03:38:35;;;;;;;4.85;4.25;;;;;;;10.77;93.38;102683.78;4988618;28;20046;-71
2023/05/31 03:41:01;;;;;;;6.47;4.65;;;;;;;10.84;93.04;102687.19;4998874;28;20105;-71
2023/05/31 03:43:26;;;;;;;5.55;3.90;;;;;;;10.84;93.52;102685.44;4998773;28;20060;-71
2023/05/31 03:45:52;;;;;;;5.57;4.53;;;;;;;10.88;93.14;102689.75;4980594;28;20053;-71
2023/05/31 03:48:17;;;;;;;6.47;4.80;;;;;;;10.83;93.53;102685.47;4980599;28;20354;-71
2023/05/31 03:50:43;;;;;;;6.20;4.60;;;;;;;10.85;93.33;102688.94;4997785;28;20046;-71
2023/05/31 03:53:09;;;;;;;5.32;4.68;;;;;;;10.82;92.98;102689.81;4998464;28;20222;-71
2023/05/31 03:55:34;;;;;;;8.05;4.30;;;;;;;10.75;93.67;102693.38;4985197;28;20054;-71
2023/05/31 03:58:00;;;;;;;8.73;4.95;;;;;;;10.74;93.28;102699.53;4980282;28;20057;-71
2023/05/31 04:00:25;;;;;;;4.72;4.32;;;;;;;10.71;93.96;102702.19;4994942;28;20046;-71
2023/05/31 04:02:51;;;;;;;5.47;4.40;;;;;;;10.76;93.56;102710.88;4997156;28;20149;-71
2023/05/31 04:05:17;;;;;;;5.65;4.68;;;;;;;10.68;93.66;102703.09;4987822;28;20042;-71
2023/05/31 04:07:42;;;;;;;5.63;4.65;;;;;;;10.69;93.99;102704.81;4992714;28;20076;-71
2023/05/31 04:10:08;;;;;;;8.57;4.82;;;;;;;10.61;93.97;102708.44;4996568;28;20030;-71
2023/05/31 04:12:34;;;;;;;9.35;4.57;;;;;;;10.65;94.01;102708.38;4999006;28;20152;-71
2023/05/31 04:14:59;;;;;;;6.40;4.45;;;;;;;10.56;94.42;102706.69;4995147;28;20391;-71
2023/05/31 04:17:25;;;;;;;5.45;4.85;;;;;;;10.51;94.56;102708.53;4991616;28;20076;-71
2023/05/31 04:19:51;;;;;;;9.13;4.53;;;;;;;10.50;94.73;102703.31;4990029;28;20266;-71
2023/05/31 04:22:16;;;;;;;7.32;4.55;;;;;;;10.52;95.05;102712.00;4992782;28;20034;-71
2023/05/31 04:24:41;;;;;;;6.25;4.47;;;;;;;10.48;94.92;102705.06;4990951;28;20117;-71
2023/05/31 04:27:07;;;;;;;5.60;4.50;;;;;;;10.59;94.52;102704.94;4997718;28;20046;-71
2023/05/31 04:29:33;;;;;;;11.45;4.97;;;;;;;10.63;94.13;102706.66;4989708;28;20392;-71
2023/05/31 04:31:59;;;;;;;6.47;4.88;;;;;;;10.57;94.39;102707.59;4998218;28;20038;-71
2023/05/31 04:34:26;;;;;;;9.80;4.93;;;;;;;10.61;94.49;102711.06;4998008;28;20050;-71
2023/05/31 04:36:52;;;;;;;5.97;4.78;;;;;;;10.66;94.43;102719.69;4998163;28;20306;-71
2023/05/31 04:39:22;;;;;;;9.88;5.28;;;;;;;10.61;94.13;102727.63;4997908;28;20026;-71
2023/05/31 04:41:48;;;;;;;7.53;4.55;;;;;;;10.61;94.46;102714.53;4997775;28;20256;-71
2023/05/31 04:44:14;;;;;;;7.25;5.18;;;;;;;10.66;94.72;102714.47;4998146;28;20030;-71
2023/05/31 04:46:42;;;;;;;8.63;5.88;;;;;;;10.69;94.66;102717.06;4998231;28;20116;-71
2023/05/31 04:49:09;;;;;;;9.88;5.80;;;;;;;10.77;94.40;102717.84;4980328;28;20343;-71
2023/05/31 04:51:35;;;;;;;8.30;5.68;;;;;;;10.74;94.54;102716.13;4998522;28;20089;-71
2023/05/31 04:54:01;;;;;;;6.20;5.13;;;;;;;10.85;94.45;102720.38;4996420;28;20046;-71
2023/05/31 04:56:27;;;;;;;10.70;5.72;;;;;;;10.88;94.43;102718.59;4993002;28;20065;-71
2023/05/31 04:58:52;;;;;;;9.63;5.78;;;;;;;10.85;94.35;102715.13;4997746;28;20038;-71
2023/05/31 05:01:17;;;;;;;9.85;5.57;;;;;;;10.93;94.18;102718.50;4985066;28;20023;-71
2023/05/31 05:03:44;;;;;;;6.97;5.05;;;;;;;10.98;94.35;102711.47;4980124;28;20054;-71
2023/05/31 05:06:15;;;;;;;14.60;6.88;;;;;;;10.99;94.61;102712.31;4991341;28;20038;-71
2023/05/31 05:08:41;;;;;;;13.80;6.30;;;;;;;11.05;94.23;102717.50;4997350;28;20058;-71
2023/05/31 05:11:07;;;;;;;7.60;5.75;;;;;;;11.09;93.87;102717.44;4986473;28;20053;-71
2023/05/31 05:13:32;;;;;;;8.95;5.85;;;;;;;11.11;93.81;102718.31;4987035;28;20034;-71
2023/05/31 05:15:58;;;;;;;9.10;6.10;;;;;;;11.14;94.59;102720.88;4987398;28;20050;-71
2023/05/31 05:18:23;;;;;;;9.45;6.25;;;;;;;11.14;94.27;102712.16;4977944;28;20097;-71
2023/05/31 05:20:48;;;;;;;10.35;6.10;;;;;;;11.21;94.85;102713.81;4986896;28;20074;-71
2023/05/31 05:23:14;;;;;;;7.55;5.65;;;;;;;11.25;93.80;102718.13;4985527;28;20226;-71
2023/05/31 05:25:39;;;;;;;7.18;5.65;;;;;;;11.31;93.71;102722.41;4992663;28;20077;-71
2023/05/31 05:28:05;;;;;;;9.43;6.28;;;;;;;11.29;94.19;102721.56;4979308;28;20046;-71
2023/05/31 05:30:30;;;;;;;9.98;5.82;;;;;;;11.35;93.65;102724.13;4996038;28;20101;-71
2023/05/31 05:32:56;;;;;;;11.85;6.43;;;;;;;11.41;94.04;102726.63;4997284;28;20030;-71
2023/05/31 05:35:21;;;;;;;12.05;6.53;;;;;;;11.39;94.25;102724.91;4998695;28;20045;-71
2023/05/31 05:37:47;;;;;;;11.00;6.70;;;;;;;11.42;94.22;102727.50;4981534;28;20341;-71
2023/05/31 05:40:12;;;;;;;11.32;7.22;;;;;;;11.45;94.09;102736.19;5000248;28;20227;-71
2023/05/31 05:42:38;;;;;;;12.68;6.60;;;;;;;11.54;94.50;102732.59;4982266;28;20096;-71
2023/05/31 05:45:06;;;;;;;11.30;6.75;;;;;;;11.52;93.98;102724.72;4989145;28;20238;-71
2023/05/31 05:47:32;;;;;;;19.98;6.95;;;;;;;11.54;94.36;102729.97;4987981;28;20109;-71
2023/05/31 05:49:57;;;;;;;8.73;6.32;;;;;;;11.64;94.11;102722.81;4999046;28;20038;-71
2023/05/31 05:52:23;;;;;;;14.82;7.30;;;;;;;11.67;93.72;102734.13;4997594;28;20030;-71
2023/05/31 05:54:48;;;;;;;11.50;7.25;;;;;;;11.72;93.64;102731.44;4983462;28;20105;-71
2023/05/31 05:57:14;;;;;;;9.75;7.00;;;;;;;11.77;93.57;102729.63;4987714;28;20046;-71
2023/05/31 05:59:41;;;;;;;13.23;7.32;;;;;;;11.78;93.18;102727.84;5001117;28;20030;-71
2023/05/31 06:02:06;;;;;;;11.50;7.22;;;;;;;11.79;93.42;102726.94;4998812;28;20038;-71
2023/05/31 06:04:31;;;;;;;11.95;7.38;;;;;;;11.85;93.29;102726.88;4999789;28;20115;-71
2023/05/31 06:06:57;;;;;;;12.30;7.45;;;;;;;11.87;93.49;102723.31;4994220;28;20049;-71
2023/05/31 06:09:22;;;;;;;11.65;7.63;;;;;;;11.93;92.97;102726.78;4997502;28;20040;-71
2023/05/31 06:11:48;;;;;;;11.55;8.30;;;;;;;11.94;93.33;102718.00;4996008;28;20076;-71
2023/05/31 06:14:13;;;;;;;10.68;7.93;;;;;;;11.98;92.98;102730.19;4982032;28;20061;-71
2023/05/31 06:16:38;;;;;;;11.90;7.57;;;;;;;12.00;92.97;102731.88;4999818;28;20314;-71
2023/05/31 06:19:04;;;;;;;13.82;7.22;;;;;;;12.03;92.99;102731.84;4994209;28;20073;-71
2023/05/31 06:21:29;;;;;;;10.60;7.65;;;;;;;12.07;92.82;102728.28;5001669;28;20057;-71
2023/05/31 06:23:54;;;;;;;13.88;8.70;;;;;;;12.15;92.68;102737.78;4998074;28;20046;-71
2023/05/31 06:26:20;;;;;;;13.32;8.90;;;;;;;12.19;92.23;102731.59;4993795;28;20291;-71
2023/05/31 06:28:45;;;;;;;15.52;8.50;;;;;;;12.21;91.72;102735.06;4981155;28;20261;-71
2023/05/31 06:31:11;;;;;;;14.88;7.47;;;;;;;12.26;91.78;102726.22;4985686;28;20102;-71
2023/05/31 06:33:36;;;;;;;13.20;7.72;;;;;;;12.38;91.36;102734.75;4996431;28;20093;-71
2023/05/31 06:36:02;;;;;;;14.10;8.85;;;;;;;12.40;91.08;102735.59;4993287;28;20125;-71
2023/05/31 06:38:28;;;;;;;15.93;8.73;;;;;;;12.43;91.28;102736.41;4982520;28;20233;-71
2023/05/31 06:40:53;;;;;;;13.32;8.45;;;;;;;12.51;91.13;102736.25;4989805;28;20038;-71
2023/05/31 06:43:18;;;;;;;12.38;8.45;;;;;;;12.60;90.70;102733.47;4980786;28;20049;-71
2023/05/31 06:45:44;;;;;;;17.02;8.30;;;;;;;12.65;90.35;102736.88;4995036;28;20269;-71
2023/05/31 06:48:10;;;;;;;11.60;7.25;;;;;;;12.73;89.89;102734.09;4984098;28;20030;-71
2023/05/31 06:50:35;;;;;;;15.45;8.23;;;;;;;12.82;89.71;102733.94;4994600;28;20038;-71
2023/05/31 06:53:00;;;;;;;15.68;8.13;;;;;;;12.86;89.40;102732.97;4993568;28;20042;-71
2023/05/31 06:55:26;;;;;;;10.75;8.23;;;;;;;12.89;89.51;102733.78;4989574;28;20121;-71
2023/05/31 06:57:51;;;;;;;21.20;8.82;;;;;;;12.93;89.71;102725.78;4999422;28;20026;-71
2023/05/31 07:00:17;;;;;;;9.95;7.47;;;;;;;13.01;89.24;102725.66;4998673;28;20050;-71
2023/05/31 07:02:43;;;;;;;14.38;8.00;;;;;;;13.06;89.37;102729.03;4998850;28;20066;-71
2023/05/31 07:05:08;;;;;;;11.35;7.72;;;;;;;13.09;88.53;102731.63;4980946;28;20294;-71
2023/05/31 07:07:34;;;;;;;15.98;8.15;;;;;;;13.17;88.50;102724.44;4997175;28;20113;-72
2023/05/31 07:10:00;;;;;;;14.95;7.63;;;;;;;13.22;88.30;102726.94;4996626;28;20030;-71
2023/05/31 07:12:26;;;;;;;13.85;8.02;;;;;;;13.31;88.00;102718.03;4993919;28;20120;-71
2023/05/31 07:14:51;;;;;;;11.68;7.88;;;;;;;13.37;87.63;102726.66;4996217;28;20042;-71
2023/05/31 07:17:16;;;;;;;9.60;7.65;;;;;;;13.41;86.52;102715.16;4991424;28;20046;-71
2023/05/31 07:19:48;;;;;;;14.77;7.60;;;;;;;13.47;86.63;102719.41;4995559;28;20061;-71
2023/05/31 07:22:15;;;;;;;15.40;8.00;;;;;;;13.55;86.22;102725.38;4995759;28;20128;-71
2023/05/31 07:24:41;;;;;;;10.80;7.03;;;;;;;13.65;86.48;102719.91;4997190;28;20380;-71
2023/05/31 07:27:07;;;;;;;13.13;7.40;;;;;;;13.76;86.09;102716.09;4995797;28;20046;-71
2023/05/31 07:29:33;;;;;;;12.95;7.50;;;;;;;13.81;85.88;102708.97;4993605;28;20038;-71
2023/05/31 07:31:58;;;;;;;11.95;7.35;;;;;;;13.88;84.74;102709.69;4994562;28;20187;-71
2023/05/31 07:34:24;;;;;;;15.23;7.57;;;;;;;13.99;85.22;102712.91;4996233;28;20038;-71
2023/05/31 07:36:49;;;;;;;10.55;6.88;;;;;;;14.07;83.51;102714.47;4996838;28;20065;-71
2023/05/31 07:39:15;;;;;;;16.20;7.28;;;;;;;14.15;83.74;102717.75;4996154;28;20088;-71
2023/05/31 07:41:41;;;;;;;12.60;7.35;;;;;;;14.20;83.71;102710.63;4996839;28;20076;-71
2023/05/31 07:44:07;;;;;;;13.93;6.72;;;;;;;14.30;84.21;102708.63;4991802;28;20117;-71
2023/05/31 07:46:32;;;;;;;12.40;6.97;;;;;;;14.41;82.83;102706.56;4996660;28;20345;-71
2023/05/31 07:48:58;;;;;;;16.48;7.28;;;;;;;14.48;82.11;102700.22;4995910;28;20061;-71
2023/05/31 07:51:23;;;;;;;12.20;7.30;;;;;;;14.57;81.41;102706.97;4995491;28;20565;-71
2023/05/31 07:53:49;;;;;;;10.95;7.07;;;;;;;14.58;80.49;102703.47;4995441;28;20045;-71
2023/05/31 07:56:14;;;;;;;15.02;7.25;;;;;;;14.57;80.00;102705.25;4997009;28;20342;-71
2023/05/31 07:58:40;;;;;;;11.30;6.88;;;;;;;14.61;80.28;102695.50;4973715;28;20085;-71
2023/05/31 08:01:05;;;;;;;12.90;7.07;;;;;;;14.63;80.28;102698.94;4986755;28;20257;-71
2023/05/31 08:03:31;;;;;;;12.88;6.63;;;;;;;14.67;80.28;102700.59;4986544;28;20052;-71
2023/05/31 08:05:56;;;;;;;10.27;6.35;;;;;;;14.73;80.15;102703.03;4996522;28;20053;-71
2023/05/31 08:08:22;;;;;;;12.07;6.38;;;;;;;14.84;79.95;102692.19;4979973;28;20264;-72
2023/05/31 08:10:48;;;;;;;13.48;6.38;;;;;;;14.95;79.55;102695.38;4976993;28;20118;-72
2023/05/31 08:13:13;;;;;;;10.95;6.60;;;;;;;15.09;80.12;102692.31;4947011;28;20498;-72
2023/05/31 08:15:38;;;;;;;10.95;6.45;;;;;;;15.22;79.65;102698.09;4985869;28;20062;-72
2023/05/31 08:18:04;;;;;;;15.73;6.03;;;;;;;15.30;78.01;102698.72;4983645;28;20314;-72
2023/05/31 08:20:29;;;;;;;13.25;7.35;;;;;;;15.32;77.63;102698.69;4968534;28;20363;-72
2023/05/31 08:22:55;;;;;;;11.38;6.45;;;;;;;15.34;78.13;102695.06;4986158;28;20046;-72
2023/05/31 08:25:22;;;;;;;13.98;6.47;;;;;;;15.39;78.01;102696.69;4983312;28;20061;-72
2023/05/31 08:27:47;;;;;;;10.35;6.55;;;;;;;15.47;77.65;102695.53;4987822;28;20043;-72
2023/05/31 08:30:13;;;;;;;13.98;7.13;;;;;;;15.49;77.52;102693.72;4980089;28;20042;-72
2023/05/31 08:32:40;;;;;;;13.45;7.43;;;;;;;15.53;77.65;102690.09;4988419;28;20090;-72
2023/05/31 08:35:06;;;;;;;9.98;6.60;;;;;;;15.62;77.89;102690.69;4996225;28;20034;-72
2023/05/31 08:37:32;;;;;;;12.48;6.25;;;;;;;15.68;77.91;102683.44;4993358;28;20057;-72
2023/05/31 08:39:58;;;;;;;12.18;7.28;;;;;;;15.74;77.26;102682.41;4977961;28;20035;-72
2023/05/31 08:42:35;;;;;;;12.27;6.60;;;;;;;15.79;76.99;102680.47;4975747;28;20169;-72
2023/05/31 08:45:00;;;;;;;10.55;5.85;;;;;;;15.86;76.55;102686.41;4994301;28;20229;-72
2023/05/31 08:47:39;;;;;;;10.85;6.65;;;;;;;15.98;76.30;102680.72;4991649;28;20043;-72
2023/05/31 08:50:05;;;;;;;12.57;6.53;;;;;;;16.02;75.30;102684.09;4981334;28;20367;-72
2023/05/31 08:52:31;;;;;;;12.93;6.43;;;;;;;16.03;75.83;102677.91;4996182;28;20050;-72
2023/05/31 08:54:58;;;;;;;12.48;7.18;;;;;;;16.04;75.86;102685.78;4983551;28;20057;-72
2023/05/31 08:57:23;;;;;;;13.25;7.07;;;;;;;16.07;76.65;102679.53;4991904;28;20326;-72
2023/05/31 08:59:50;;;;;;;16.13;7.07;;;;;;;16.10;76.14;102674.16;4977594;28;20038;-72
2023/05/31 09:02:16;;;;;;;11.20;6.60;;;;;;;16.14;75.88;102672.25;4992300;28;20369;-72
2023/05/31 09:04:43;;;;;;;13.88;7.20;;;;;;;16.18;76.04;102666.81;4988203;28;20038;-72
2023/05/31 09:07:08;;;;;;;7.13;5.82;;;;;;;16.21;75.75;102676.38;4997112;28;20303;-72
2023/05/31 09:09:33;;;;;;;16.15;7.13;;;;;;;16.30;75.01;102679.59;4982294;28;20035;-72
2023/05/31 09:12:00;;;;;;;14.45;6.47;;;;;;;16.38;75.40;102667.88;4995253;28;20057;-72
2023/05/31 09:14:25;;;;;;;10.57;6.13;;;;;;;16.41;74.17;102665.09;4998962;28;20104;-72
2023/05/31 09:16:51;;;;;;;8.32;5.70;;;;;;;16.47;74.37;102672.84;4999322;28;20041;-72
2023/05/31 09:19:17;;;;;;;15.32;7.10;;;;;;;16.51;74.35;102669.16;4991575;28;20397;-72
2023/05/31 09:21:44;;;;;;;16.23;6.15;;;;;;;16.54;74.59;102668.19;4992637;28;20042;-72
2023/05/31 09:24:12;;;;;;;13.48;5.88;;;;;;;16.58;74.26;102660.06;4991581;28;20076;-72
2023/05/31 09:26:51;;;;;;;8.93;5.93;;;;;;;16.67;74.18;102658.88;4991465;28;20422;-72
2023/05/31 09:29:17;;;;;;;9.73;5.57;;;;;;;16.76;73.88;102655.03;4993434;28;20233;-72
2023/05/31 09:31:45;;;;;;;12.43;6.00;;;;;;;16.88;74.11;102652.81;4999473;28;20046;-72
2023/05/31 09:34:37;;;;;;;10.20;5.60;;;;;;;17.00;72.75;102654.09;4993309;28;20125;-72
2023/05/31 09:37:03;;;;;;;11.02;5.72;;;;;;;17.05;73.42;102660.06;4977672;28;20397;-72
2023/05/31 09:39:29;;;;;;;13.20;5.93;;;;;;;17.07;72.19;102649.44;4994397;28;20038;-72
2023/05/31 09:41:56;;;;;;;10.05;5.97;;;;;;;17.08;71.64;102652.03;5001242;28;20119;-72
2023/05/31 09:44:27;;;;;;;8.75;5.75;;;;;;;17.12;71.67;102654.53;4999482;28;20074;-72
2023/05/31 09:46:52;;;;;;;11.18;5.88;;;;;;;17.17;71.92;102656.09;4995070;28;20043;-72
2023/05/31 09:49:19;;;;;;;9.65;5.53;;;;;;;17.21;71.74;102652.41;4998291;28;20042;-72
2023/05/31 09:51:52;;;;;;;12.50;5.72;;;;;;;17.30;71.21;102656.47;4998935;28;20046;-72
2023/05/31 09:54:22;;;;;;;13.27;5.72;;;;;;;17.39;71.04;102655.22;4985518;28;20062;-72
2023/05/31 09:56:48;;;;;;;10.57;6.00;;;;;;;17.46;71.59;102652.28;4999429;28;20042;-72
2023/05/31 09:59:15;;;;;;;13.68;6.25;;;;;;;17.53;71.53;102655.50;4998715;28;20133;-72
2023/05/31 10:01:40;;;;;;;11.95;6.43;;;;;;;17.60;71.15;102645.53;5000026;28;20076;-72
2023/05/31 10:04:06;;;;;;;8.90;6.13;;;;;;;17.58;69.69;102644.75;4984074;28;20287;-72
2023/05/31 10:06:36;;;;;;;12.77;6.65;;;;;;;17.60;69.73;102641.09;4997489;28;20073;-72
2023/05/31 10:09:06;;;;;;;13.57;5.57;;;;;;;17.63;69.23;102638.31;4994384;28;20073;-72
2023/05/31 10:11:40;;;;;;;10.30;5.35;;;;;;;17.70;69.64;102638.06;4995945;28;20115;-72
2023/05/31 10:14:12;;;;;;;12.63;5.40;;;;;;;17.77;68.91;102645.69;4999273;28;20464;-72
2023/05/31 10:16:45;;;;;;;7.43;5.78;;;;;;;17.83;69.20;102645.44;4999907;28;20096;-72
2023/05/31 10:19:12;;;;;;;11.18;5.30;;;;;;;17.95;68.83;102637.91;4997374;28;20065;-72
2023/05/31 10:21:42;;;;;;;11.70;5.95;;;;;;;18.01;68.94;102635.84;5000655;28;20065;-72
2023/05/31 10:24:13;;;;;;;15.27;5.55;;;;;;;18.07;68.57;102633.88;4999074;28;20033;-72
2023/05/31 10:27:07;;;;;;;9.85;5.82;;;;;;;18.11;68.16;102635.44;4999742;28;20280;-72
2023/05/31 10:29:55;;;;;;;12.45;5.78;;;;;;;18.09;66.97;102627.56;4998590;28;20097;-72
2023/05/31 10:32:26;;;;;;;10.70;6.00;;;;;;;18.15;68.29;102632.56;4995874;28;20872;-72
2023/05/31 10:34:52;;;;;;;6.80;5.43;;;;;;;18.18;67.12;102631.59;5005694;28;20265;-72
2023/05/31 10:37:19;;;;;;;9.80;5.45;;;;;;;18.16;66.27;102628.16;5009560;28;20383;-72
2023/05/31 10:39:55;;;;;;;8.55;5.22;;;;;;;18.16;66.91;102626.34;5000849;28;20101;-72
2023/05/31 10:42:33;;;;;;;12.52;5.60;;;;;;;18.19;66.15;102618.28;4999501;28;20396;-72
2023/05/31 10:45:01;;;;;;;11.07;5.70;;;;;;;18.22;66.64;102630.53;4999237;28;20033;-72
2023/05/31 10:47:41;;;;;;;9.13;5.40;;;;;;;18.23;66.62;102611.91;4981848;28;20281;-72
2023/05/31 10:50:06;;;;;;;8.18;5.63;;;;;;;18.34;67.47;102605.25;4991147;28;20326;-72
2023/05/31 10:52:32;;;;;;;10.55;5.57;;;;;;;18.38;66.61;102615.66;4992525;28;20054;-72
2023/05/31 10:55:23;;;;;;;8.98;4.85;;;;;;;18.38;66.65;102617.44;4998849;28;20042;-72
2023/05/31 10:57:53;;;;;;;13.02;5.05;;;;;;;18.39;65.51;102619.16;4997238;28;20352;-72
2023/05/31 11:00:22;;;;;;;6.65;5.00;;;;;;;18.40;65.67;102611.13;4990794;28;20037;-72
2023/05/31 11:02:51;;;;;;;6.93;4.45;;;;;;;18.45;65.88;102610.06;4993303;28;20042;-72
2023/05/31 11:05:24;;;;;;;8.38;5.70;;;;;;;18.48;65.45;102602.84;4990308;28;20041;-72
2023/05/31 11:07:51;;;;;;;9.07;4.65;;;;;;;18.51;65.93;102602.69;4998771;28;20112;-72
2023/05/31 11:10:32;;;;;;;11.55;5.72;;;;;;;18.58;65.85;102600.59;4987921;28;20050;-72
2023/05/31 11:13:02;;;;;;;10.13;4.85;;;;;;;18.66;65.49;102603.75;4996114;28;20061;-72
2023/05/31 11:15:41;;;;;;;6.70;4.80;;;;;;;18.73;65.78;102599.88;4998903;28;20261;-72
2023/05/31 11:18:28;;;;;;;9.27;4.63;;;;;;;18.75;64.74;102605.13;4983127;28;20105;-72
2023/05/31 11:20:54;;;;;;;7.45;4.78;;;;;;;18.74;64.14;102600.75;4961099;28;20043;-72
2023/05/31 11:23:23;;;;;;;10.25;4.75;;;;;;;18.78;64.94;102599.66;4994173;28;20132;-72
2023/05/31 11:26:08;;;;;;;5.47;4.80;;;;;;;18.88;64.96;102595.69;5002564;28;20273;-72
2023/05/31 11:28:58;;;;;;;7.85;4.65;;;;;;;18.92;63.24;102588.44;5006900;28;20333;-72
2023/05/31 11:31:48;;;;;;;8.52;5.13;;;;;;;18.99;64.01;102596.03;5005499;28;20038;-72
2023/05/31 11:34:34;;;;;;;8.57;4.90;;;;;;;19.07;63.77;102586.81;5004457;28;20033;-72
2023/05/31 11:37:01;;;;;;;12.38;4.47;;;;;;;19.05;62.46;102586.03;5005650;28;20030;-72
2023/05/31 11:49:33;;;;;;;17.33;5.53;;;;;;;19.21;63.35;102579.03;4992196;28;20352;-72
2023/05/31 11:51:59;;;;;;;10.13;4.68;;;;;;;19.25;63.24;102571.78;4989875;28;20573;-72
2023/05/31 11:54:29;;;;;;;8.85;4.65;;;;;;;19.34;62.33;102579.28;4997865;28;20042;-72
2023/05/31 11:57:04;;;;;;;8.98;4.63;;;;;;;19.30;60.88;102575.03;4982710;28;20056;-72